Blue Oak Ranch Reserve, California Weather observations

Data are for 10 minute period ending at time listed.
 Day   Time   Solar   Ave.   Ave.  Ave.  Vector  Max.   Baro.   Total    
  of    of     Rad.   Air    Rel.  Wind   Wind   Wind  Press.  Precip.   
Year   Day            Temp.  Hum.  Speed  Dir.   Gust                    
2018   (PST)  Kw/m2    F      %     mph   deg.    mph    mb.     in.     
-------------------------------------------------------------------------
 260    5:20   0.00   44.3    76    1.8   296     3.3   948.3    0.00 
 260    5:30   0.00   43.7    78    0.6   321     1.7   948.3    0.00 
 260    5:40   0.00   44.1    77    0.3    71     1.6   948.4    0.00 
 260    5:50   0.00   44.4    75    0.7   278     2.0   948.4    0.00 
 260    6:00   0.01   44.2    76    1.2    75     2.3   948.5    0.00 
 260    6:10   0.01   44.3    75    0.3    71     1.8   948.5    0.00 
 260    6:20   0.01   44.3    75    0.0     0     0.0   948.6    0.00 
 260    6:30   0.02   44.4    76    0.3   289     1.3   948.7    0.00 
 260    6:40   0.02   45.2    75    0.7   305     1.3   948.8    0.00 
 260    6:50   0.05   45.9    74    0.0     0     0.0   948.9    0.00 
 260    7:00   0.16   48.5    70    0.3    78     1.3   949.0    0.00 
 260    7:10   0.19   53.2    63    0.0   248     0.7   949.0    0.00 
 260    7:20   0.23   58.0    56    0.6   270     1.4   949.1    0.00 
 260    7:30   0.26   61.4    49    0.4   280     1.2   949.2    0.00 
 260    7:40   0.30   61.9    48    0.6   142     1.7   949.2    0.00 
 260    7:50   0.33   62.0    46    0.9   139     1.5   949.3    0.00 
 260    8:00   0.36   63.3    45    1.1   190     2.6   949.3    0.00 
 260    8:10   0.40   64.8    45    2.7   230     5.0   949.4    0.00 
 260    8:20   0.43   63.6    48    4.1   214     6.6   949.4    0.00 
 260    8:30   0.47   64.4    47    3.8   228     5.6   949.4    0.00 
 260    8:40   0.50   66.0    45    3.4   225     5.6   949.4    0.00 
 260    8:50   0.53   65.9    45    4.4   235     9.2   949.5    0.00 
 260    9:00   0.56   65.8    47    6.0   235     9.0   949.5    0.00 
 260    9:10   0.59   64.2    50    5.3   235     8.9   949.6    0.00 
 260    9:20   0.62   65.1    50    5.0   230     8.0   949.6    0.00 
 260    9:30   0.65   66.4    47    5.2   236     9.0   949.7    0.00 
 260    9:40   0.67   66.6    47    6.1   230    10.2   949.7    0.00 
 260    9:50   0.69   67.6    45    5.6   246     8.7   949.7    0.00 
 260   10:00   0.72   68.3    46    5.2   245     9.3   949.7    0.00 
 260   10:10   0.74   68.0    48    5.4   244     8.7   949.7    0.00 
 260   10:20   0.76   68.3    47    5.1   240     7.9   949.7    0.00 
 260   10:30   0.78   69.2    46    6.2   236     9.6   949.7    0.00 
 260   10:40   0.79   68.5    47    5.5   229    10.3   949.5    0.00 
 260   10:50   0.81   68.8    47    6.4   247    11.5   949.5    0.00 
 260   11:00   0.82   68.5    48    6.9   253    12.8   949.6    0.00 
 260   11:10   0.83   69.0    47    6.5   241    11.6   949.5    0.00 
 260   11:20   0.84   69.2    46    5.9   248    12.2   949.5    0.00 
 260   11:30   0.85   68.8    45    7.2   227    11.3   949.4    0.00 
 260   11:40   0.85   68.4    45    7.4   233    12.0   949.5    0.00 
 260   11:50   0.86   70.0    41    6.5   242    12.8   949.4    0.00 
 260   12:00   0.86   71.2    40    7.2   279    12.5   949.4    0.00 
 260   12:10   0.86   70.8    40    6.6   284    11.5   949.3    0.00 
 260   12:20   0.86   70.8    40    5.8   277     9.9   949.2    0.00 
 260   12:30   0.86   70.8    39    6.3   301    12.7   949.1    0.00 
 260   12:40   0.86   73.3    35    6.6   272    10.2   949.0    0.00 
 260   12:50   0.82   72.3    36    7.4   264    12.2   949.0    0.00 
 260   13:00   0.84   72.0    37    6.1   274    11.3   949.0    0.00 
 260   13:10   0.83   72.5    37    6.3   268    10.7   948.9    0.00 
 260   13:20   0.82   72.4    39    6.6   256    11.8   948.8    0.00 
 260   13:30   0.80   72.1    40    6.3   279    11.3   948.7    0.00 
 260   13:40   0.79   72.9    39    6.5   268    12.5   948.7    0.00 
 260   13:50   0.77   73.1    39    6.2   251    11.5   948.5    0.00 
 260   14:00   0.75   72.9    39    5.1   278    11.2   948.5    0.00 
 260   14:10   0.73   73.0    39    6.7   277    13.2   948.5    0.00 
 260   14:20   0.71   72.8    40    7.0   262    11.7   948.5    0.00 
 260   14:30   0.69   71.3    42    7.5   235    11.0   948.4    0.00 
 260   14:40   0.66   71.5    41    6.0   239    10.4   948.3    0.00 
 260   14:50   0.64   71.5    41    6.7   246    11.9   948.3    0.00 
 260   15:00   0.61   71.4    41    5.9   255    12.1   948.2    0.00 
 260   15:10   0.58   72.5    40    6.3   278    13.7   948.2    0.00 
 260   15:20   0.55   70.8    42    8.0   281    11.4   948.3    0.00 
 260   15:30   0.52   70.3    43    7.1   288    13.0   948.2    0.00 
 260   15:40   0.49   69.4    44    7.1   283    11.0   948.2    0.00 
 260   15:50   0.46   69.0    44    7.6   282    11.5   948.1    0.00 
 260   16:00   0.42   68.8    45    7.2   280    11.5   948.0    0.00 
 260   16:10   0.39   67.5    47   10.2   286    15.2   948.0    0.00 
 260   16:20   0.35   66.4    47    8.4   291    13.4   948.0    0.00 
 260   16:30   0.32   65.0    47    9.0   295    14.1   948.0    0.00 
 260   16:40   0.28   65.1    45    8.1   284    12.6   948.1    0.00 
 260   16:50   0.25   64.8    44    7.1   285    11.9   948.1    0.00 
 260   17:00   0.22   64.4    45    7.4   282    11.8   948.2    0.00 
 260   17:10   0.18   63.6    45    8.0   284    11.5   948.2    0.00 
 260   17:20   0.15   62.8    45    7.6   283    12.5   948.3    0.00 
 260   17:30   0.12   61.8    47    7.7   284    10.6   948.3    0.00 
 260   17:40   0.09   60.4    49    7.6   288    11.9   948.3    0.00 
 260   17:50   0.05   58.7    50    7.0   294    10.3   948.2    0.00 
 260   18:00   0.01   57.8    50    7.8   297    10.6   948.2    0.00 
 260   18:10   0.01   57.3    50    7.1   303    11.3   948.2    0.00 
 260   18:20   0.00   56.5    53    5.8   300     7.8   948.3    0.00 
 260   18:30   0.00   56.0    55    5.2   295     8.2   948.3    0.00 
 260   18:40   0.00   55.6    56    3.1   298     7.0   948.3    0.00 
 260   18:50   0.00   54.8    56    1.6   326     4.4   948.3    0.00 
 260   19:00   0.00   54.4    56    2.3   309     4.7   948.3    0.00 
 260   19:10   0.00   54.0    56    2.0   304     4.7   948.4    0.00 
 260   19:20   0.00   52.9    57    2.2   330     6.2   948.5    0.00 
 260   19:30   0.00   53.0    57    2.0   285     3.9   948.6    0.00 
 260   19:40   0.00   52.3    60    2.2   288     5.7   948.6    0.00 
 260   19:50   0.00   50.7    61    1.2   331     2.5   948.7    0.00 
 260   20:00   0.00   50.2    63    2.2   298     4.4   948.9    0.00 
 260   20:10   0.00   49.3    63    1.2   316     3.4   949.0    0.00 
 260   20:20   0.00   48.2    64    0.3    35     1.6   949.1    0.00 
 260   20:30   0.00   47.2    66    0.7    44     2.0   949.2    0.00 
 260   20:40   0.00   47.1    66    1.1    38     2.2   949.2    0.00 
 260   20:50   0.00   46.5    68    1.2   326     2.5   949.2    0.00 
 260   21:00   0.00   46.0    69    0.2   336     1.4   949.1    0.00 
 260   21:10   0.00   46.1    71    2.1   299     4.5   949.0    0.00 
 260   21:20   0.00   46.7    73    2.3   303     5.0   949.0    0.00 
 260   21:30   0.00   45.4    72    2.1   312     6.2   949.0    0.00 
 260   21:40   0.00   44.8    72    1.1    64     2.6   949.0    0.00 
 260   21:50   0.00   44.4    74    0.1    26     1.0   948.9    0.00 
 260   22:00   0.00   44.3    76    0.1   293     0.9   948.9    0.00 
 260   22:10   0.00   44.2    74    0.9    59     2.1   948.9    0.00 
 260   22:20   0.00   43.6    75    0.5    53     2.0   948.9    0.00 
 260   22:30   0.00   43.6    76    0.9   333     2.3   948.8    0.00 
 260   22:40   0.00   43.4    78    0.9   290     2.1   948.9    0.00 
 260   22:50   0.00   42.9    78    0.4    86     1.4   948.8    0.00 
 260   23:00   0.00   42.8    80    0.5   284     1.5   948.8    0.00 
 260   23:10   0.00   42.8    81    0.6   308     1.4   948.8    0.00 
 260   23:20   0.00   42.6    81    0.2    26     1.2   948.8    0.00 
 260   23:30   0.00   42.5    83    0.4   296     1.5   948.7    0.00 
 260   23:40   0.00   42.3    83    0.1    38     0.9   948.6    0.00 
 260   23:50   0.00   42.2    84    0.6   294     2.1   948.5    0.00 
 261    0:00   0.00   41.9    84    0.0    90     0.7   948.4    0.00 
 261    0:10   0.00   41.5    85    1.2   293     2.8   948.4    0.00 
 261    0:20   0.00   41.2    86    0.8     7     1.7   948.4    0.00 
 261    0:30   0.00   41.6    85    0.5    50     1.6   948.4    0.00 
 261    0:40   0.00   41.5    86    0.2   287     0.9   948.3    0.00 
 261    0:50   0.00   41.5    86    0.0     0     0.0   948.3    0.00 
 261    1:00   0.00   41.3    86    0.0     0     0.0   948.4    0.00 
 261    1:10   0.00   41.3    86    0.0     0     0.0   948.4    0.00 
 261    1:20   0.00   41.3    87    0.1    70     1.2   948.4    0.00 
 261    1:30   0.00   41.3    87    1.2    60     2.3   948.4    0.00 
 261    1:40   0.00   40.6    86    1.7   297     3.0   948.4    0.00 
 261    1:50   0.00   40.2    89    1.7    58     2.8   948.3    0.00 
 261    2:00   0.00   40.7    87    0.8   338     1.6   948.2    0.00 
 261    2:10   0.00   40.8    89    0.6   286     1.5   948.1    0.00 
 261    2:20   0.00   41.1    90    0.6   298     2.8   947.9    0.00 
 261    2:30   0.00   41.2    90    0.1    19     0.7   948.0    0.00 
 261    2:40   0.00   41.3    90    1.0   288     4.5   948.0    0.00 
 261    2:50   0.00   41.6    90    1.7   340     3.9   947.9    0.00 
 261    3:00   0.00   40.9    90    0.9    49     2.0   948.0    0.00 
 261    3:10   0.00   41.7    91    1.9   284     3.3   948.1    0.00 
 261    3:20   0.00   41.0    90    1.0    74     2.8   948.0    0.00 
 261    3:30   0.00   41.3    91    0.4    57     1.3   948.0    0.00 
 261    3:40   0.00   41.7    91    0.7   295     2.2   947.9    0.00 
 261    3:50   0.00   41.6    92    0.9   294     2.2   947.8    0.00 
 261    4:00   0.00   41.5    92    0.0     0     0.0   947.7    0.00 
 261    4:10   0.00   41.5    92    0.1   291     1.8   947.7    0.00 
 261    4:20   0.00   41.0    92    1.8   295     2.5   947.6    0.00 
 261    4:30   0.00   41.1    93    1.1   271     2.1   947.6    0.00 
 261    4:40   0.00   41.8    93    1.9   311     2.8   947.7    0.00 
 261    4:50   0.00   41.4    93    1.9   342     3.1   947.9    0.00 
 261    5:00   0.00   42.2    93    2.4    65     3.4   948.0    0.00 
 261    5:10   0.00   41.8    92    0.5    50     2.0   948.0    0.00 

Return to Blue Oak Ranch Reserve graphs page.


Western Regional Climate Center,wrcc@dri.edu